sensor_id;sensor_type;location;lat;lon;timestamp;P1;durP1;ratioP1;P2;durP2;ratioP2
177;SDS011;77;48.792;9.032;2022-09-11T00:02:17;5.40;;;2.87;;
177;SDS011;77;48.792;9.032;2022-09-11T00:04:42;4.10;;;2.53;;
177;SDS011;77;48.792;9.032;2022-09-11T00:07:07;7.83;;;2.77;;
177;SDS011;77;48.792;9.032;2022-09-11T00:09:32;5.57;;;2.70;;
177;SDS011;77;48.792;9.032;2022-09-11T00:11:58;5.17;;;2.60;;
177;SDS011;77;48.792;9.032;2022-09-11T00:14:24;3.93;;;2.80;;
177;SDS011;77;48.792;9.032;2022-09-11T00:16:50;4.80;;;3.00;;
177;SDS011;77;48.792;9.032;2022-09-11T00:19:16;6.20;;;2.97;;
177;SDS011;77;48.792;9.032;2022-09-11T00:21:42;3.90;;;2.70;;
177;SDS011;77;48.792;9.032;2022-09-11T00:24:08;4.80;;;2.70;;
177;SDS011;77;48.792;9.032;2022-09-11T00:26:33;6.30;;;3.10;;
177;SDS011;77;48.792;9.032;2022-09-11T00:28:58;4.03;;;2.57;;
177;SDS011;77;48.792;9.032;2022-09-11T00:31:25;4.90;;;2.63;;
177;SDS011;77;48.792;9.032;2022-09-11T00:33:52;4.03;;;2.50;;
177;SDS011;77;48.792;9.032;2022-09-11T00:36:18;6.57;;;3.00;;
177;SDS011;77;48.792;9.032;2022-09-11T00:38:43;4.27;;;2.97;;
177;SDS011;77;48.792;9.032;2022-09-11T00:41:10;5.27;;;2.60;;
177;SDS011;77;48.792;9.032;2022-09-11T00:43:49;4.80;;;2.80;;
177;SDS011;77;48.792;9.032;2022-09-11T00:46:15;5.40;;;2.80;;
177;SDS011;77;48.792;9.032;2022-09-11T00:48:41;3.73;;;2.40;;
177;SDS011;77;48.792;9.032;2022-09-11T00:51:08;4.53;;;2.60;;
177;SDS011;77;48.792;9.032;2022-09-11T00:53:34;5.47;;;2.60;;
177;SDS011;77;48.792;9.032;2022-09-11T00:56:01;5.20;;;2.70;;
177;SDS011;77;48.792;9.032;2022-09-11T00:58:30;4.43;;;3.03;;
177;SDS011;77;48.792;9.032;2022-09-11T01:00:56;4.70;;;2.50;;
177;SDS011;77;48.792;9.032;2022-09-11T01:03:22;6.40;;;2.60;;
177;SDS011;77;48.792;9.032;2022-09-11T01:05:49;4.37;;;2.50;;
177;SDS011;77;48.792;9.032;2022-09-11T01:08:14;3.17;;;2.23;;
177;SDS011;77;48.792;9.032;2022-09-11T01:10:42;5.07;;;2.70;;
177;SDS011;77;48.792;9.032;2022-09-11T01:13:15;3.97;;;2.70;;
177;SDS011;77;48.792;9.032;2022-09-11T01:15:44;4.23;;;2.50;;
177;SDS011;77;48.792;9.032;2022-09-11T01:18:14;6.03;;;2.80;;
177;SDS011;77;48.792;9.032;2022-09-11T01:20:50;4.67;;;2.47;;
177;SDS011;77;48.792;9.032;2022-09-11T01:23:30;4.60;;;2.63;;
177;SDS011;77;48.792;9.032;2022-09-11T01:26:00;3.63;;;2.57;;
177;SDS011;77;48.792;9.032;2022-09-11T01:28:32;4.00;;;2.50;;
177;SDS011;77;48.792;9.032;2022-09-11T01:31:01;3.90;;;2.70;;
177;SDS011;77;48.792;9.032;2022-09-11T01:33:30;4.47;;;2.80;;
177;SDS011;77;48.792;9.032;2022-09-11T01:36:01;3.70;;;2.70;;
177;SDS011;77;48.792;9.032;2022-09-11T01:38:31;3.60;;;2.90;;
177;SDS011;77;48.792;9.032;2022-09-11T01:40:58;6.47;;;2.80;;
177;SDS011;77;48.792;9.032;2022-09-11T01:43:25;5.10;;;3.07;;
177;SDS011;77;48.792;9.032;2022-09-11T01:45:52;4.27;;;2.97;;
177;SDS011;77;48.792;9.032;2022-09-11T01:48:18;5.13;;;2.90;;
177;SDS011;77;48.792;9.032;2022-09-11T01:50:45;4.83;;;2.80;;
177;SDS011;77;48.792;9.032;2022-09-11T01:53:11;6.77;;;3.33;;
177;SDS011;77;48.792;9.032;2022-09-11T01:55:39;5.80;;;3.60;;
177;SDS011;77;48.792;9.032;2022-09-11T01:58:05;4.27;;;3.20;;
177;SDS011;77;48.792;9.032;2022-09-11T02:00:31;4.90;;;3.43;;
177;SDS011;77;48.792;9.032;2022-09-11T02:02:59;4.10;;;3.23;;
177;SDS011;77;48.792;9.032;2022-09-11T02:05:26;4.27;;;3.10;;
177;SDS011;77;48.792;9.032;2022-09-11T02:07:53;4.87;;;3.50;;
177;SDS011;77;48.792;9.032;2022-09-11T02:10:21;6.77;;;3.33;;
177;SDS011;77;48.792;9.032;2022-09-11T02:12:49;6.60;;;3.37;;
177;SDS011;77;48.792;9.032;2022-09-11T02:15:16;4.60;;;3.60;;
177;SDS011;77;48.792;9.032;2022-09-11T02:17:44;6.97;;;3.60;;
177;SDS011;77;48.792;9.032;2022-09-11T02:20:12;8.37;;;3.90;;
177;SDS011;77;48.792;9.032;2022-09-11T02:22:38;4.20;;;3.30;;
177;SDS011;77;48.792;9.032;2022-09-11T02:25:03;5.30;;;3.70;;
177;SDS011;77;48.792;9.032;2022-09-11T02:27:29;5.00;;;3.40;;
177;SDS011;77;48.792;9.032;2022-09-11T02:29:54;5.43;;;3.50;;
177;SDS011;77;48.792;9.032;2022-09-11T02:32:20;6.57;;;3.40;;
177;SDS011;77;48.792;9.032;2022-09-11T02:34:45;4.73;;;3.30;;
177;SDS011;77;48.792;9.032;2022-09-11T02:37:14;7.30;;;3.80;;
177;SDS011;77;48.792;9.032;2022-09-11T02:39:54;7.43;;;3.40;;
177;SDS011;77;48.792;9.032;2022-09-11T02:42:30;4.80;;;3.40;;
177;SDS011;77;48.792;9.032;2022-09-11T02:44:59;6.30;;;3.37;;
177;SDS011;77;48.792;9.032;2022-09-11T02:47:30;5.13;;;3.43;;
177;SDS011;77;48.792;9.032;2022-09-11T02:50:02;5.20;;;3.60;;
177;SDS011;77;48.792;9.032;2022-09-11T02:52:33;5.80;;;3.97;;
177;SDS011;77;48.792;9.032;2022-09-11T02:55:03;7.60;;;3.60;;
177;SDS011;77;48.792;9.032;2022-09-11T02:57:29;5.43;;;3.40;;
177;SDS011;77;48.792;9.032;2022-09-11T02:59:56;5.30;;;3.30;;
177;SDS011;77;48.792;9.032;2022-09-11T03:02:22;5.23;;;3.63;;
177;SDS011;77;48.792;9.032;2022-09-11T03:04:48;8.40;;;3.73;;
177;SDS011;77;48.792;9.032;2022-09-11T03:07:13;7.47;;;3.70;;
177;SDS011;77;48.792;9.032;2022-09-11T03:09:40;5.37;;;3.77;;
177;SDS011;77;48.792;9.032;2022-09-11T03:12:05;5.07;;;4.10;;
177;SDS011;77;48.792;9.032;2022-09-11T03:14:30;7.10;;;4.63;;
177;SDS011;77;48.792;9.032;2022-09-11T03:16:55;5.83;;;4.10;;
177;SDS011;77;48.792;9.032;2022-09-11T03:19:21;5.53;;;4.03;;
177;SDS011;77;48.792;9.032;2022-09-11T03:21:46;5.20;;;4.40;;
177;SDS011;77;48.792;9.032;2022-09-11T03:24:11;6.40;;;4.80;;
177;SDS011;77;48.792;9.032;2022-09-11T03:26:38;8.30;;;5.20;;
177;SDS011;77;48.792;9.032;2022-09-11T03:29:03;8.30;;;4.77;;
177;SDS011;77;48.792;9.032;2022-09-11T03:31:28;8.03;;;5.17;;
177;SDS011;77;48.792;9.032;2022-09-11T03:33:54;8.03;;;5.47;;
177;SDS011;77;48.792;9.032;2022-09-11T03:36:19;10.40;;;5.47;;
177;SDS011;77;48.792;9.032;2022-09-11T03:38:44;9.67;;;6.33;;
177;SDS011;77;48.792;9.032;2022-09-11T03:41:09;10.30;;;6.67;;
177;SDS011;77;48.792;9.032;2022-09-11T03:43:36;11.10;;;6.10;;
177;SDS011;77;48.792;9.032;2022-09-11T03:46:01;8.00;;;6.10;;
177;SDS011;77;48.792;9.032;2022-09-11T03:48:27;9.83;;;6.80;;
177;SDS011;77;48.792;9.032;2022-09-11T03:50:52;8.27;;;6.33;;
177;SDS011;77;48.792;9.032;2022-09-11T03:53:17;9.63;;;6.63;;
177;SDS011;77;48.792;9.032;2022-09-11T03:55:43;9.10;;;7.00;;
177;SDS011;77;48.792;9.032;2022-09-11T03:58:09;11.13;;;6.90;;
177;SDS011;77;48.792;9.032;2022-09-11T04:00:36;9.70;;;7.00;;
177;SDS011;77;48.792;9.032;2022-09-11T04:03:04;9.10;;;6.67;;
177;SDS011;77;48.792;9.032;2022-09-11T04:05:29;8.77;;;7.07;;
177;SDS011;77;48.792;9.032;2022-09-11T04:07:54;10.70;;;6.80;;
177;SDS011;77;48.792;9.032;2022-09-11T04:10:19;11.20;;;7.50;;
177;SDS011;77;48.792;9.032;2022-09-11T04:12:45;10.00;;;7.53;;
177;SDS011;77;48.792;9.032;2022-09-11T04:15:10;11.67;;;7.97;;
177;SDS011;77;48.792;9.032;2022-09-11T04:17:36;15.67;;;7.20;;
177;SDS011;77;48.792;9.032;2022-09-11T04:20:02;13.47;;;7.40;;
177;SDS011;77;48.792;9.032;2022-09-11T04:22:27;10.23;;;8.43;;
177;SDS011;77;48.792;9.032;2022-09-11T04:24:52;12.93;;;8.03;;
177;SDS011;77;48.792;9.032;2022-09-11T04:27:18;11.30;;;9.13;;
177;SDS011;77;48.792;9.032;2022-09-11T04:29:43;13.27;;;8.60;;
177;SDS011;77;48.792;9.032;2022-09-11T04:32:08;12.97;;;9.43;;
177;SDS011;77;48.792;9.032;2022-09-11T04:34:35;12.93;;;8.90;;
177;SDS011;77;48.792;9.032;2022-09-11T04:37:00;10.07;;;8.10;;
177;SDS011;77;48.792;9.032;2022-09-11T04:39:25;13.47;;;9.20;;
177;SDS011;77;48.792;9.032;2022-09-11T04:41:50;13.30;;;8.53;;
177;SDS011;77;48.792;9.032;2022-09-11T04:44:15;13.90;;;8.40;;
177;SDS011;77;48.792;9.032;2022-09-11T04:46:41;12.20;;;8.13;;
177;SDS011;77;48.792;9.032;2022-09-11T04:49:07;13.90;;;8.20;;
177;SDS011;77;48.792;9.032;2022-09-11T04:51:34;10.00;;;7.50;;
177;SDS011;77;48.792;9.032;2022-09-11T04:54:00;13.40;;;8.40;;
177;SDS011;77;48.792;9.032;2022-09-11T04:56:26;11.50;;;8.57;;
177;SDS011;77;48.792;9.032;2022-09-11T04:58:52;13.10;;;8.77;;
177;SDS011;77;48.792;9.032;2022-09-11T05:01:18;10.80;;;7.70;;
177;SDS011;77;48.792;9.032;2022-09-11T05:03:45;10.40;;;7.87;;
177;SDS011;77;48.792;9.032;2022-09-11T05:06:11;11.60;;;9.07;;
177;SDS011;77;48.792;9.032;2022-09-11T05:08:37;11.60;;;8.47;;
177;SDS011;77;48.792;9.032;2022-09-11T05:11:03;11.37;;;7.97;;
177;SDS011;77;48.792;9.032;2022-09-11T05:13:28;15.60;;;8.50;;
177;SDS011;77;48.792;9.032;2022-09-11T05:15:58;13.17;;;9.20;;
177;SDS011;77;48.792;9.032;2022-09-11T05:18:24;14.50;;;9.20;;
177;SDS011;77;48.792;9.032;2022-09-11T05:20:57;11.27;;;8.73;;
177;SDS011;77;48.792;9.032;2022-09-11T05:23:22;11.00;;;8.60;;
177;SDS011;77;48.792;9.032;2022-09-11T05:25:49;10.47;;;7.73;;
177;SDS011;77;48.792;9.032;2022-09-11T05:28:14;13.60;;;8.80;;
177;SDS011;77;48.792;9.032;2022-09-11T05:30:40;10.97;;;8.87;;
177;SDS011;77;48.792;9.032;2022-09-11T05:33:05;11.30;;;9.47;;
177;SDS011;77;48.792;9.032;2022-09-11T05:35:30;13.20;;;9.20;;
177;SDS011;77;48.792;9.032;2022-09-11T05:37:55;13.70;;;9.20;;
177;SDS011;77;48.792;9.032;2022-09-11T05:40:21;13.33;;;9.10;;
177;SDS011;77;48.792;9.032;2022-09-11T05:42:47;13.40;;;8.10;;
177;SDS011;77;48.792;9.032;2022-09-11T05:45:13;12.67;;;9.00;;
177;SDS011;77;48.792;9.032;2022-09-11T05:47:38;11.77;;;9.03;;
177;SDS011;77;48.792;9.032;2022-09-11T05:50:03;15.03;;;10.20;;
177;SDS011;77;48.792;9.032;2022-09-11T05:52:29;10.80;;;9.10;;
177;SDS011;77;48.792;9.032;2022-09-11T05:54:54;15.40;;;10.33;;
177;SDS011;77;48.792;9.032;2022-09-11T05:57:19;12.97;;;8.73;;
177;SDS011;77;48.792;9.032;2022-09-11T05:59:46;10.87;;;8.53;;
177;SDS011;77;48.792;9.032;2022-09-11T06:02:13;15.63;;;10.23;;
177;SDS011;77;48.792;9.032;2022-09-11T06:04:39;12.50;;;8.60;;
177;SDS011;77;48.792;9.032;2022-09-11T06:07:04;12.63;;;9.10;;
177;SDS011;77;48.792;9.032;2022-09-11T06:09:29;13.47;;;9.60;;
177;SDS011;77;48.792;9.032;2022-09-11T06:11:55;12.63;;;9.33;;
177;SDS011;77;48.792;9.032;2022-09-11T06:14:20;13.50;;;10.00;;
177;SDS011;77;48.792;9.032;2022-09-11T06:16:47;12.60;;;9.20;;
177;SDS011;77;48.792;9.032;2022-09-11T06:19:12;14.77;;;10.00;;
177;SDS011;77;48.792;9.032;2022-09-11T06:21:37;14.53;;;9.93;;
177;SDS011;77;48.792;9.032;2022-09-11T06:24:03;14.00;;;9.47;;
177;SDS011;77;48.792;9.032;2022-09-11T06:26:28;12.53;;;9.17;;
177;SDS011;77;48.792;9.032;2022-09-11T06:28:53;15.13;;;10.53;;
177;SDS011;77;48.792;9.032;2022-09-11T06:31:19;12.17;;;9.30;;
177;SDS011;77;48.792;9.032;2022-09-11T06:33:46;13.00;;;9.60;;
177;SDS011;77;48.792;9.032;2022-09-11T06:36:12;10.33;;;8.97;;
177;SDS011;77;48.792;9.032;2022-09-11T06:38:38;14.77;;;8.60;;
177;SDS011;77;48.792;9.032;2022-09-11T06:41:04;12.03;;;9.23;;
177;SDS011;77;48.792;9.032;2022-09-11T06:43:30;11.93;;;9.67;;
177;SDS011;77;48.792;9.032;2022-09-11T06:46:01;15.73;;;9.57;;
177;SDS011;77;48.792;9.032;2022-09-11T06:48:29;13.70;;;9.97;;
177;SDS011;77;48.792;9.032;2022-09-11T06:50:56;11.30;;;8.40;;
177;SDS011;77;48.792;9.032;2022-09-11T06:53:21;10.13;;;8.47;;
177;SDS011;77;48.792;9.032;2022-09-11T06:55:47;13.13;;;9.00;;
177;SDS011;77;48.792;9.032;2022-09-11T06:58:12;16.20;;;9.37;;
177;SDS011;77;48.792;9.032;2022-09-11T07:00:37;11.87;;;8.80;;
177;SDS011;77;48.792;9.032;2022-09-11T07:03:03;12.27;;;9.27;;
177;SDS011;77;48.792;9.032;2022-09-11T07:05:28;12.97;;;9.30;;
177;SDS011;77;48.792;9.032;2022-09-11T07:07:55;12.93;;;9.47;;
177;SDS011;77;48.792;9.032;2022-09-11T07:10:21;14.87;;;9.57;;
177;SDS011;77;48.792;9.032;2022-09-11T07:12:46;10.37;;;8.73;;
177;SDS011;77;48.792;9.032;2022-09-11T07:15:12;13.97;;;9.40;;
177;SDS011;77;48.792;9.032;2022-09-11T07:17:37;14.77;;;9.77;;
177;SDS011;77;48.792;9.032;2022-09-11T07:20:02;12.23;;;10.17;;
177;SDS011;77;48.792;9.032;2022-09-11T07:22:28;14.03;;;9.80;;
177;SDS011;77;48.792;9.032;2022-09-11T07:24:55;14.30;;;9.50;;
177;SDS011;77;48.792;9.032;2022-09-11T07:27:20;13.00;;;8.57;;
177;SDS011;77;48.792;9.032;2022-09-11T07:29:46;12.20;;;10.40;;
177;SDS011;77;48.792;9.032;2022-09-11T07:32:11;13.37;;;10.10;;
177;SDS011;77;48.792;9.032;2022-09-11T07:34:39;12.10;;;10.20;;
177;SDS011;77;48.792;9.032;2022-09-11T07:37:04;16.60;;;11.00;;
177;SDS011;77;48.792;9.032;2022-09-11T07:39:30;13.17;;;10.47;;
177;SDS011;77;48.792;9.032;2022-09-11T07:41:56;13.80;;;9.93;;
177;SDS011;77;48.792;9.032;2022-09-11T07:44:22;16.33;;;10.10;;
177;SDS011;77;48.792;9.032;2022-09-11T07:46:47;13.97;;;9.03;;
177;SDS011;77;48.792;9.032;2022-09-11T07:49:12;13.00;;;9.77;;
177;SDS011;77;48.792;9.032;2022-09-11T07:51:38;12.60;;;9.57;;
177;SDS011;77;48.792;9.032;2022-09-11T07:54:03;12.23;;;9.30;;
177;SDS011;77;48.792;9.032;2022-09-11T07:56:28;11.10;;;8.80;;
177;SDS011;77;48.792;9.032;2022-09-11T07:58:55;13.20;;;10.17;;
177;SDS011;77;48.792;9.032;2022-09-11T08:01:21;13.97;;;9.40;;
177;SDS011;77;48.792;9.032;2022-09-11T08:03:47;16.53;;;9.30;;
177;SDS011;77;48.792;9.032;2022-09-11T08:06:13;13.07;;;9.43;;
177;SDS011;77;48.792;9.032;2022-09-11T08:08:39;13.27;;;9.77;;
177;SDS011;77;48.792;9.032;2022-09-11T08:11:05;10.50;;;8.40;;
177;SDS011;77;48.792;9.032;2022-09-11T08:13:30;11.20;;;8.90;;
177;SDS011;77;48.792;9.032;2022-09-11T08:15:58;14.90;;;9.50;;
177;SDS011;77;48.792;9.032;2022-09-11T08:18:23;12.60;;;9.20;;
177;SDS011;77;48.792;9.032;2022-09-11T08:20:48;13.20;;;9.40;;
177;SDS011;77;48.792;9.032;2022-09-11T08:23:14;14.10;;;8.73;;
177;SDS011;77;48.792;9.032;2022-09-11T08:25:39;12.13;;;9.83;;
177;SDS011;77;48.792;9.032;2022-09-11T08:28:04;12.77;;;10.10;;
177;SDS011;77;48.792;9.032;2022-09-11T08:30:31;13.90;;;9.90;;
177;SDS011;77;48.792;9.032;2022-09-11T08:32:57;12.47;;;9.40;;
177;SDS011;77;48.792;9.032;2022-09-11T08:35:23;12.40;;;8.90;;
177;SDS011;77;48.792;9.032;2022-09-11T08:37:48;11.53;;;9.40;;
177;SDS011;77;48.792;9.032;2022-09-11T08:40:14;11.13;;;8.87;;
177;SDS011;77;48.792;9.032;2022-09-11T08:42:39;10.33;;;8.13;;
177;SDS011;77;48.792;9.032;2022-09-11T08:45:06;11.80;;;9.40;;
177;SDS011;77;48.792;9.032;2022-09-11T08:47:32;13.20;;;9.63;;
177;SDS011;77;48.792;9.032;2022-09-11T08:50:01;12.67;;;9.00;;
177;SDS011;77;48.792;9.032;2022-09-11T08:52:29;10.33;;;8.53;;
177;SDS011;77;48.792;9.032;2022-09-11T08:54:56;13.20;;;8.93;;
177;SDS011;77;48.792;9.032;2022-09-11T08:57:23;10.00;;;8.20;;
177;SDS011;77;48.792;9.032;2022-09-11T09:00:03;9.93;;;8.10;;
177;SDS011;77;48.792;9.032;2022-09-11T09:02:37;10.97;;;8.47;;
177;SDS011;77;48.792;9.032;2022-09-11T09:05:15;11.60;;;8.87;;
177;SDS011;77;48.792;9.032;2022-09-11T09:07:45;8.77;;;7.80;;
177;SDS011;77;48.792;9.032;2022-09-11T09:10:26;11.73;;;8.10;;
177;SDS011;77;48.792;9.032;2022-09-11T09:12:57;13.50;;;8.30;;
177;SDS011;77;48.792;9.032;2022-09-11T09:15:25;12.30;;;8.90;;
177;SDS011;77;48.792;9.032;2022-09-11T09:17:52;10.00;;;8.57;;
177;SDS011;77;48.792;9.032;2022-09-11T09:20:21;10.70;;;7.83;;
177;SDS011;77;48.792;9.032;2022-09-11T09:22:50;10.63;;;8.83;;
177;SDS011;77;48.792;9.032;2022-09-11T09:25:18;14.00;;;9.13;;
177;SDS011;77;48.792;9.032;2022-09-11T09:27:47;12.53;;;9.53;;
177;SDS011;77;48.792;9.032;2022-09-11T09:30:13;11.67;;;9.23;;
177;SDS011;77;48.792;9.032;2022-09-11T09:32:40;12.07;;;9.67;;
177;SDS011;77;48.792;9.032;2022-09-11T09:35:09;12.50;;;9.00;;
177;SDS011;77;48.792;9.032;2022-09-11T09:37:41;13.60;;;9.90;;
177;SDS011;77;48.792;9.032;2022-09-11T09:40:07;13.17;;;10.10;;
177;SDS011;77;48.792;9.032;2022-09-11T09:42:37;13.60;;;10.57;;
177;SDS011;77;48.792;9.032;2022-09-11T09:45:09;13.30;;;9.87;;
177;SDS011;77;48.792;9.032;2022-09-11T09:47:39;15.67;;;9.10;;
177;SDS011;77;48.792;9.032;2022-09-11T09:50:09;13.10;;;9.43;;
177;SDS011;77;48.792;9.032;2022-09-11T09:52:41;11.50;;;8.90;;
177;SDS011;77;48.792;9.032;2022-09-11T09:55:12;10.53;;;8.70;;
177;SDS011;77;48.792;9.032;2022-09-11T09:57:37;11.33;;;9.10;;
177;SDS011;77;48.792;9.032;2022-09-11T10:00:03;13.00;;;9.27;;
177;SDS011;77;48.792;9.032;2022-09-11T10:02:35;12.00;;;9.50;;
177;SDS011;77;48.792;9.032;2022-09-11T10:05:04;12.73;;;9.50;;
177;SDS011;77;48.792;9.032;2022-09-11T10:07:30;13.07;;;10.13;;
177;SDS011;77;48.792;9.032;2022-09-11T10:10:01;13.97;;;9.50;;
177;SDS011;77;48.792;9.032;2022-09-11T10:12:26;12.70;;;10.70;;
177;SDS011;77;48.792;9.032;2022-09-11T10:14:52;10.93;;;9.50;;
177;SDS011;77;48.792;9.032;2022-09-11T10:17:20;11.47;;;8.90;;
177;SDS011;77;48.792;9.032;2022-09-11T10:19:46;14.40;;;10.80;;
177;SDS011;77;48.792;9.032;2022-09-11T10:22:27;12.17;;;9.00;;
177;SDS011;77;48.792;9.032;2022-09-11T10:27:42;11.60;;;9.60;;
177;SDS011;77;48.792;9.032;2022-09-11T10:30:22;13.30;;;9.43;;
177;SDS011;77;48.792;9.032;2022-09-11T10:32:47;10.77;;;9.00;;
177;SDS011;77;48.792;9.032;2022-09-11T10:35:15;10.63;;;8.90;;
177;SDS011;77;48.792;9.032;2022-09-11T10:37:41;12.30;;;9.73;;
177;SDS011;77;48.792;9.032;2022-09-11T10:40:07;11.47;;;8.43;;
177;SDS011;77;48.792;9.032;2022-09-11T10:42:43;11.80;;;8.60;;
177;SDS011;77;48.792;9.032;2022-09-11T10:45:10;10.53;;;8.63;;
177;SDS011;77;48.792;9.032;2022-09-11T10:47:37;11.73;;;8.97;;
177;SDS011;77;48.792;9.032;2022-09-11T10:50:22;9.90;;;8.10;;
177;SDS011;77;48.792;9.032;2022-09-11T10:52:50;11.03;;;8.40;;
177;SDS011;77;48.792;9.032;2022-09-11T10:55:17;11.60;;;8.10;;
177;SDS011;77;48.792;9.032;2022-09-11T10:57:45;9.73;;;7.60;;
177;SDS011;77;48.792;9.032;2022-09-11T11:00:12;11.53;;;7.80;;
177;SDS011;77;48.792;9.032;2022-09-11T11:02:41;9.40;;;8.10;;
177;SDS011;77;48.792;9.032;2022-09-11T11:05:07;12.00;;;8.23;;
177;SDS011;77;48.792;9.032;2022-09-11T11:07:40;9.60;;;7.63;;
177;SDS011;77;48.792;9.032;2022-09-11T11:10:13;10.93;;;7.70;;
177;SDS011;77;48.792;9.032;2022-09-11T11:12:45;10.57;;;8.10;;
177;SDS011;77;48.792;9.032;2022-09-11T11:15:18;8.73;;;7.90;;
177;SDS011;77;48.792;9.032;2022-09-11T11:17:48;8.33;;;7.20;;
177;SDS011;77;48.792;9.032;2022-09-11T11:20:21;9.70;;;6.83;;
177;SDS011;77;48.792;9.032;2022-09-11T11:23:03;10.50;;;7.30;;
177;SDS011;77;48.792;9.032;2022-09-11T11:25:32;7.70;;;7.03;;
177;SDS011;77;48.792;9.032;2022-09-11T11:30:45;7.53;;;6.87;;
177;SDS011;77;48.792;9.032;2022-09-11T11:33:28;9.07;;;7.37;;
177;SDS011;77;48.792;9.032;2022-09-11T11:35:59;8.10;;;6.97;;
177;SDS011;77;48.792;9.032;2022-09-11T11:38:27;8.63;;;6.57;;
177;SDS011;77;48.792;9.032;2022-09-11T11:40:55;12.80;;;7.03;;
177;SDS011;77;48.792;9.032;2022-09-11T11:43:23;8.37;;;6.90;;
177;SDS011;77;48.792;9.032;2022-09-11T11:45:51;7.17;;;6.07;;
177;SDS011;77;48.792;9.032;2022-09-11T11:48:19;9.93;;;7.63;;
177;SDS011;77;48.792;9.032;2022-09-11T11:50:46;8.37;;;7.03;;
177;SDS011;77;48.792;9.032;2022-09-11T11:53:16;8.97;;;7.40;;
177;SDS011;77;48.792;9.032;2022-09-11T11:55:44;8.63;;;7.10;;
177;SDS011;77;48.792;9.032;2022-09-11T11:58:15;9.13;;;6.87;;
177;SDS011;77;48.792;9.032;2022-09-11T12:00:48;9.50;;;7.20;;
177;SDS011;77;48.792;9.032;2022-09-11T12:03:19;11.50;;;7.57;;
177;SDS011;77;48.792;9.032;2022-09-11T12:05:46;10.60;;;7.80;;
177;SDS011;77;48.792;9.032;2022-09-11T12:08:11;10.63;;;7.47;;
177;SDS011;77;48.792;9.032;2022-09-11T12:10:38;8.13;;;6.77;;
177;SDS011;77;48.792;9.032;2022-09-11T12:13:05;10.50;;;7.20;;
177;SDS011;77;48.792;9.032;2022-09-11T12:15:31;9.07;;;7.40;;
177;SDS011;77;48.792;9.032;2022-09-11T12:17:57;8.20;;;6.93;;
177;SDS011;77;48.792;9.032;2022-09-11T12:26:02;7.30;;;6.40;;
177;SDS011;77;48.792;9.032;2022-09-11T12:28:27;9.40;;;7.20;;
177;SDS011;77;48.792;9.032;2022-09-11T12:30:57;10.30;;;7.17;;
177;SDS011;77;48.792;9.032;2022-09-11T12:36:06;8.80;;;7.10;;
177;SDS011;77;48.792;9.032;2022-09-11T12:38:34;11.50;;;7.77;;
177;SDS011;77;48.792;9.032;2022-09-11T12:41:03;11.87;;;8.00;;
177;SDS011;77;48.792;9.032;2022-09-11T12:43:46;9.93;;;8.53;;
177;SDS011;77;48.792;9.032;2022-09-11T12:46:13;9.87;;;7.90;;
177;SDS011;77;48.792;9.032;2022-09-11T12:48:57;10.03;;;7.60;;
177;SDS011;77;48.792;9.032;2022-09-11T12:51:25;9.10;;;7.50;;
177;SDS011;77;48.792;9.032;2022-09-11T12:53:51;9.17;;;7.93;;
177;SDS011;77;48.792;9.032;2022-09-11T12:56:19;9.50;;;7.70;;
177;SDS011;77;48.792;9.032;2022-09-11T12:58:46;7.80;;;6.80;;
177;SDS011;77;48.792;9.032;2022-09-11T13:01:16;11.50;;;7.67;;
177;SDS011;77;48.792;9.032;2022-09-11T13:03:48;10.10;;;7.60;;
177;SDS011;77;48.792;9.032;2022-09-11T13:06:14;8.80;;;7.47;;
177;SDS011;77;48.792;9.032;2022-09-11T13:08:44;9.30;;;7.80;;
177;SDS011;77;48.792;9.032;2022-09-11T13:13:56;8.47;;;7.53;;
177;SDS011;77;48.792;9.032;2022-09-11T13:16:21;9.33;;;7.90;;
177;SDS011;77;48.792;9.032;2022-09-11T13:18:47;12.33;;;7.60;;
177;SDS011;77;48.792;9.032;2022-09-11T13:21:13;9.67;;;7.90;;
177;SDS011;77;48.792;9.032;2022-09-11T13:23:39;10.17;;;7.60;;
177;SDS011;77;48.792;9.032;2022-09-11T13:26:04;10.87;;;8.40;;
177;SDS011;77;48.792;9.032;2022-09-11T13:28:41;9.60;;;7.93;;
177;SDS011;77;48.792;9.032;2022-09-11T13:31:12;11.40;;;8.90;;
177;SDS011;77;48.792;9.032;2022-09-11T13:33:39;11.63;;;8.60;;
177;SDS011;77;48.792;9.032;2022-09-11T13:36:05;9.57;;;8.03;;
177;SDS011;77;48.792;9.032;2022-09-11T13:38:31;11.37;;;8.33;;
177;SDS011;77;48.792;9.032;2022-09-11T13:40:57;10.30;;;8.60;;
177;SDS011;77;48.792;9.032;2022-09-11T13:43:23;10.00;;;7.80;;
177;SDS011;77;48.792;9.032;2022-09-11T13:48:32;11.40;;;9.00;;
177;SDS011;77;48.792;9.032;2022-09-11T13:50:57;9.50;;;8.07;;
177;SDS011;77;48.792;9.032;2022-09-11T13:53:22;9.77;;;7.73;;
177;SDS011;77;48.792;9.032;2022-09-11T13:55:48;9.80;;;8.20;;
177;SDS011;77;48.792;9.032;2022-09-11T13:58:20;10.27;;;8.50;;
177;SDS011;77;48.792;9.032;2022-09-11T14:00:45;8.30;;;7.60;;
177;SDS011;77;48.792;9.032;2022-09-11T14:03:16;9.40;;;8.00;;
177;SDS011;77;48.792;9.032;2022-09-11T14:05:47;15.20;;;9.00;;
177;SDS011;77;48.792;9.032;2022-09-11T14:08:17;9.87;;;8.10;;
177;SDS011;77;48.792;9.032;2022-09-11T14:10:43;10.80;;;7.60;;
177;SDS011;77;48.792;9.032;2022-09-11T14:13:11;8.37;;;7.07;;
177;SDS011;77;48.792;9.032;2022-09-11T14:15:38;9.20;;;8.07;;
177;SDS011;77;48.792;9.032;2022-09-11T14:18:04;9.30;;;7.70;;
177;SDS011;77;48.792;9.032;2022-09-11T14:20:30;10.10;;;7.53;;
177;SDS011;77;48.792;9.032;2022-09-11T14:22:58;11.03;;;8.33;;
177;SDS011;77;48.792;9.032;2022-09-11T14:25:26;9.03;;;7.83;;
177;SDS011;77;48.792;9.032;2022-09-11T14:27:51;8.97;;;7.27;;
177;SDS011;77;48.792;9.032;2022-09-11T14:30:24;9.20;;;8.00;;
177;SDS011;77;48.792;9.032;2022-09-11T14:33:04;9.03;;;7.20;;
177;SDS011;77;48.792;9.032;2022-09-11T14:35:29;9.17;;;7.40;;
177;SDS011;77;48.792;9.032;2022-09-11T14:37:55;7.40;;;7.03;;
177;SDS011;77;48.792;9.032;2022-09-11T14:40:21;9.77;;;6.97;;
177;SDS011;77;48.792;9.032;2022-09-11T14:42:47;9.80;;;7.20;;
177;SDS011;77;48.792;9.032;2022-09-11T14:45:19;8.40;;;7.07;;
177;SDS011;77;48.792;9.032;2022-09-11T14:47:44;8.90;;;7.40;;
177;SDS011;77;48.792;9.032;2022-09-11T14:50:10;10.10;;;7.40;;
177;SDS011;77;48.792;9.032;2022-09-11T14:52:35;13.00;;;7.50;;
177;SDS011;77;48.792;9.032;2022-09-11T14:55:00;10.03;;;7.47;;
177;SDS011;77;48.792;9.032;2022-09-11T14:57:28;7.60;;;6.93;;
177;SDS011;77;48.792;9.032;2022-09-11T14:59:54;8.13;;;7.10;;
177;SDS011;77;48.792;9.032;2022-09-11T15:02:20;9.57;;;7.70;;
177;SDS011;77;48.792;9.032;2022-09-11T15:04:46;8.67;;;7.10;;
177;SDS011;77;48.792;9.032;2022-09-11T15:07:11;9.30;;;7.63;;
177;SDS011;77;48.792;9.032;2022-09-11T15:09:37;8.23;;;7.00;;
177;SDS011;77;48.792;9.032;2022-09-11T15:12:02;7.90;;;6.80;;
177;SDS011;77;48.792;9.032;2022-09-11T15:14:29;8.57;;;7.30;;
177;SDS011;77;48.792;9.032;2022-09-11T15:16:55;8.37;;;7.43;;
177;SDS011;77;48.792;9.032;2022-09-11T15:19:20;7.90;;;6.90;;
177;SDS011;77;48.792;9.032;2022-09-11T15:21:45;9.20;;;6.87;;
177;SDS011;77;48.792;9.032;2022-09-11T15:24:11;8.67;;;6.90;;
177;SDS011;77;48.792;9.032;2022-09-11T15:26:36;8.63;;;6.80;;
177;SDS011;77;48.792;9.032;2022-09-11T15:29:02;8.60;;;6.30;;
177;SDS011;77;48.792;9.032;2022-09-11T15:31:28;7.50;;;6.83;;
177;SDS011;77;48.792;9.032;2022-09-11T15:33:54;12.80;;;7.00;;
177;SDS011;77;48.792;9.032;2022-09-11T15:36:19;7.20;;;6.60;;
177;SDS011;77;48.792;9.032;2022-09-11T15:38:49;7.50;;;6.70;;
177;SDS011;77;48.792;9.032;2022-09-11T15:41:14;9.27;;;7.30;;
177;SDS011;77;48.792;9.032;2022-09-11T15:43:39;8.33;;;6.83;;
177;SDS011;77;48.792;9.032;2022-09-11T15:46:08;8.10;;;6.57;;
177;SDS011;77;48.792;9.032;2022-09-11T15:48:35;13.40;;;7.00;;
177;SDS011;77;48.792;9.032;2022-09-11T15:51:00;9.10;;;6.87;;
177;SDS011;77;48.792;9.032;2022-09-11T15:53:26;7.20;;;6.10;;
177;SDS011;77;48.792;9.032;2022-09-11T15:55:59;7.57;;;6.50;;
177;SDS011;77;48.792;9.032;2022-09-11T15:58:24;8.63;;;6.60;;
177;SDS011;77;48.792;9.032;2022-09-11T16:00:50;7.37;;;6.30;;
177;SDS011;77;48.792;9.032;2022-09-11T16:03:15;9.63;;;6.50;;
177;SDS011;77;48.792;9.032;2022-09-11T16:05:42;8.00;;;6.40;;
177;SDS011;77;48.792;9.032;2022-09-11T16:08:07;7.37;;;6.40;;
177;SDS011;77;48.792;9.032;2022-09-11T16:10:35;7.50;;;6.37;;
177;SDS011;77;48.792;9.032;2022-09-11T16:13:00;7.30;;;6.67;;